createdAt,value
2018-07-22T00:00:13.346Z,19.49
2018-07-22T00:02:41.737Z,19.46
2018-07-22T00:05:10.134Z,19.46
2018-07-22T00:07:38.976Z,19.46
2018-07-22T00:10:14.380Z,19.45
2018-07-22T00:12:42.758Z,19.46
2018-07-22T00:15:11.166Z,19.47
2018-07-22T00:17:39.570Z,19.48
2018-07-22T00:20:07.955Z,19.50
2018-07-22T00:22:36.352Z,19.49
2018-07-22T00:25:05.037Z,19.49
2018-07-22T00:27:33.438Z,19.48
2018-07-22T00:30:01.810Z,19.50
2018-07-22T00:32:30.210Z,19.48
2018-07-22T00:34:58.589Z,19.45
2018-07-22T00:37:26.990Z,19.43
2018-07-22T00:39:55.369Z,19.42
2018-07-22T00:42:23.766Z,19.40
2018-07-22T00:44:52.138Z,19.38
2018-07-22T00:47:20.538Z,19.35
2018-07-22T00:49:49.102Z,19.34
2018-07-22T00:52:17.677Z,19.33
2018-07-22T00:54:46.050Z,19.29
2018-07-22T00:57:14.445Z,19.27
2018-07-22T00:59:42.820Z,19.21
2018-07-22T01:02:11.210Z,19.16
2018-07-22T01:04:39.588Z,19.14
2018-07-22T01:07:07.990Z,19.10
2018-07-22T01:09:36.357Z,19.09
2018-07-22T01:12:04.838Z,19.07
2018-07-22T01:14:33.214Z,19.08
2018-07-22T01:17:01.670Z,19.07
2018-07-22T01:19:30.059Z,19.09
2018-07-22T01:21:58.463Z,19.11
2018-07-22T01:24:26.838Z,19.13
2018-07-22T01:26:56.242Z,19.15
2018-07-22T01:29:24.626Z,19.17
2018-07-22T01:31:53.034Z,19.19
2018-07-22T01:34:21.410Z,19.20
2018-07-22T01:36:49.810Z,19.20
2018-07-22T01:39:18.185Z,19.18
2018-07-22T01:41:46.589Z,19.20
2018-07-22T01:44:14.966Z,19.19
2018-07-22T01:46:43.371Z,19.20
2018-07-22T01:49:11.753Z,19.18
2018-07-22T01:51:40.198Z,19.16
2018-07-22T01:54:08.582Z,19.16
2018-07-22T01:56:36.985Z,19.16
2018-07-22T01:59:05.361Z,19.15
2018-07-22T02:01:33.795Z,19.14
2018-07-22T02:04:02.187Z,19.14
2018-07-22T02:06:30.599Z,19.14
2018-07-22T02:08:58.995Z,19.12
2018-07-22T02:11:27.587Z,19.12
2018-07-22T02:13:55.978Z,19.11
2018-07-22T02:16:24.378Z,19.09
2018-07-22T02:18:52.780Z,19.09
2018-07-22T02:21:21.157Z,19.09
2018-07-22T02:23:49.565Z,19.10
2018-07-22T02:26:17.945Z,19.08
2018-07-22T02:28:46.351Z,19.05
2018-07-22T02:31:14.731Z,19.03
2018-07-22T02:33:43.139Z,18.99
2018-07-22T02:36:11.517Z,18.98
2018-07-22T02:38:39.930Z,18.94
2018-07-22T02:41:08.322Z,18.90
2018-07-22T02:43:36.744Z,18.83
2018-07-22T02:46:05.132Z,18.78
2018-07-22T02:48:33.539Z,18.76
2018-07-22T02:51:01.931Z,18.72
2018-07-22T02:53:30.331Z,18.68
2018-07-22T02:55:58.711Z,18.64
2018-07-22T02:58:27.122Z,18.63
2018-07-22T03:00:55.504Z,18.60
2018-07-22T03:03:23.957Z,18.56
2018-07-22T03:05:52.318Z,18.52
2018-07-22T03:08:20.709Z,18.49
2018-07-22T03:10:49.085Z,18.46
2018-07-22T03:13:17.482Z,18.44
2018-07-22T03:15:45.864Z,18.44
2018-07-22T03:18:14.303Z,18.44
2018-07-22T03:20:42.700Z,18.43
2018-07-22T03:23:11.195Z,18.42
2018-07-22T03:25:39.587Z,18.40
2018-07-22T03:28:08.031Z,18.40
2018-07-22T03:30:36.422Z,18.39
2018-07-22T03:33:06.452Z,18.39
2018-07-22T03:35:34.814Z,18.40
2018-07-22T03:38:03.234Z,18.39
2018-07-22T03:40:31.655Z,18.39
2018-07-22T03:43:00.054Z,18.40
2018-07-22T03:45:28.439Z,18.42
2018-07-22T03:47:56.833Z,18.42
2018-07-22T03:50:25.219Z,18.43
2018-07-22T03:52:53.631Z,18.44
2018-07-22T03:55:22.021Z,18.47
2018-07-22T03:57:50.429Z,18.50
2018-07-22T04:00:18.815Z,18.51
2018-07-22T04:02:47.224Z,18.54
2018-07-22T04:05:15.610Z,18.58
2018-07-22T04:07:44.027Z,18.63
2018-07-22T04:10:12.411Z,18.68
2018-07-22T04:12:40.917Z,18.76
2018-07-22T04:15:09.297Z,18.84
2018-07-22T04:17:37.743Z,18.92
2018-07-22T04:20:06.351Z,18.99
2018-07-22T04:22:34.972Z,19.08
2018-07-22T04:25:03.638Z,19.16
2018-07-22T04:27:32.014Z,19.21
2018-07-22T04:30:00.413Z,19.25
2018-07-22T04:32:28.854Z,19.28
2018-07-22T04:34:57.249Z,19.30
2018-07-22T04:37:25.641Z,19.29
2018-07-22T04:39:54.039Z,19.26
2018-07-22T04:42:22.406Z,19.21
2018-07-22T04:44:50.808Z,19.19
2018-07-22T04:47:19.178Z,19.20
2018-07-22T04:49:47.583Z,19.23
2018-07-22T04:52:15.960Z,19.29
2018-07-22T04:54:44.594Z,19.38
2018-07-22T04:57:12.975Z,19.48
2018-07-22T04:59:41.379Z,19.56
2018-07-22T05:02:09.749Z,19.68
2018-07-22T05:04:38.154Z,19.79
2018-07-22T05:07:06.542Z,19.90
2018-07-22T05:09:34.943Z,20.09
2018-07-22T05:12:03.562Z,20.27
2018-07-22T05:14:31.957Z,20.44
2018-07-22T05:17:00.361Z,20.56
2018-07-22T05:19:28.770Z,20.68
2018-07-22T05:21:57.166Z,20.82
2018-07-22T05:24:25.570Z,20.97
2018-07-22T05:26:53.959Z,21.11
2018-07-22T05:29:22.354Z,21.22
2018-07-22T05:31:50.742Z,21.31
2018-07-22T05:34:19.145Z,21.42
2018-07-22T05:36:47.527Z,21.51
2018-07-22T05:39:15.935Z,21.60
2018-07-22T05:41:44.323Z,21.71
2018-07-22T05:44:12.735Z,21.80
2018-07-22T05:46:41.133Z,21.89
2018-07-22T05:49:09.526Z,21.97
2018-07-22T05:51:37.898Z,22.04
2018-07-22T05:54:06.482Z,22.09
2018-07-22T05:56:34.848Z,22.13
2018-07-22T05:59:03.266Z,22.18
2018-07-22T06:01:31.637Z,22.20
2018-07-22T06:04:00.031Z,22.22
2018-07-22T06:06:28.405Z,22.22
2018-07-22T06:08:56.803Z,22.24
2018-07-22T06:11:25.179Z,22.28
2018-07-22T06:13:53.586Z,22.35
2018-07-22T06:16:21.950Z,22.40
2018-07-22T06:18:50.373Z,22.43
2018-07-22T06:21:18.742Z,22.50
2018-07-22T06:23:47.115Z,22.57
2018-07-22T06:26:15.522Z,22.63
2018-07-22T06:28:43.896Z,22.70
2018-07-22T06:31:12.302Z,22.79
2018-07-22T06:33:40.674Z,22.92
2018-07-22T06:36:09.087Z,23.09
2018-07-22T06:38:37.726Z,23.27
2018-07-22T06:41:06.191Z,23.42
2018-07-22T06:43:34.556Z,23.54
2018-07-22T06:46:02.968Z,23.60
2018-07-22T06:48:31.363Z,23.67
2018-07-22T06:50:59.754Z,23.70
2018-07-22T06:53:28.174Z,23.71
2018-07-22T06:55:56.567Z,23.71
2018-07-22T06:58:24.944Z,23.72
2018-07-22T07:00:53.353Z,23.77
2018-07-22T07:03:21.727Z,23.88
2018-07-22T07:05:50.162Z,23.94
2018-07-22T07:08:18.538Z,24.02
2018-07-22T07:10:46.979Z,24.12
2018-07-22T07:13:15.349Z,24.19
2018-07-22T07:15:43.747Z,24.29
2018-07-22T07:18:12.146Z,24.38
2018-07-22T07:20:40.545Z,24.44
2018-07-22T07:23:08.966Z,24.48
2018-07-22T07:25:37.366Z,24.53
2018-07-22T07:28:14.142Z,24.56
2018-07-22T07:30:42.540Z,24.57
2018-07-22T07:33:10.919Z,24.57
2018-07-22T07:35:39.319Z,24.56
2018-07-22T07:38:07.683Z,24.57
2018-07-22T07:40:36.087Z,24.57
2018-07-22T07:43:04.475Z,24.58
2018-07-22T07:45:32.875Z,24.59
2018-07-22T07:48:01.243Z,24.60
2018-07-22T07:50:29.642Z,24.62
2018-07-22T07:52:58.023Z,24.65
2018-07-22T07:55:26.409Z,24.69
2018-07-22T07:57:54.799Z,24.72
2018-07-22T08:00:23.203Z,24.77
2018-07-22T08:02:51.582Z,24.82
2018-07-22T08:05:19.983Z,24.87
2018-07-22T08:07:48.358Z,24.94
2018-07-22T08:10:16.750Z,25.01
2018-07-22T08:12:45.130Z,25.14
2018-07-22T08:15:13.543Z,25.31
2018-07-22T08:17:41.952Z,25.48
2018-07-22T08:20:10.361Z,25.61
2018-07-22T08:22:38.746Z,25.76
2018-07-22T08:25:07.557Z,25.88
2018-07-22T08:27:35.982Z,25.92
2018-07-22T08:30:05.165Z,26.00
2018-07-22T08:32:33.593Z,26.08
2018-07-22T08:35:01.974Z,26.11
2018-07-22T08:37:30.371Z,26.15
2018-07-22T08:39:58.755Z,26.24
2018-07-22T08:42:27.158Z,26.35
2018-07-22T08:44:55.539Z,26.45
2018-07-22T08:47:23.961Z,26.52
2018-07-22T08:49:52.337Z,26.58
2018-07-22T08:52:20.742Z,26.59
2018-07-22T08:54:49.130Z,26.62
2018-07-22T08:57:17.543Z,26.66
2018-07-22T08:59:45.922Z,26.68
2018-07-22T09:02:14.953Z,26.69
2018-07-22T09:04:43.329Z,26.67
2018-07-22T09:07:11.725Z,26.67
2018-07-22T09:09:40.107Z,26.67
2018-07-22T09:12:08.521Z,26.69
2018-07-22T09:14:36.899Z,26.73
2018-07-22T09:17:05.353Z,26.77
2018-07-22T09:19:33.731Z,26.81
2018-07-22T09:22:02.139Z,26.88
2018-07-22T09:24:30.533Z,26.89
2018-07-22T09:26:58.959Z,26.90
2018-07-22T09:29:27.358Z,26.91
2018-07-22T09:31:55.766Z,26.95
2018-07-22T09:34:24.142Z,27.03
2018-07-22T09:36:52.551Z,27.10
2018-07-22T09:39:20.931Z,27.19
2018-07-22T09:41:49.364Z,27.30
2018-07-22T09:44:17.727Z,27.43
2018-07-22T09:46:46.126Z,27.51
2018-07-22T09:49:14.521Z,27.57
2018-07-22T09:51:42.925Z,27.68
2018-07-22T09:54:11.302Z,27.77
2018-07-22T09:56:39.700Z,27.86
2018-07-22T09:59:08.144Z,28.00
2018-07-22T10:01:36.550Z,28.10
2018-07-22T10:04:04.987Z,28.16
2018-07-22T10:06:33.390Z,28.17
2018-07-22T10:09:01.775Z,28.22
2018-07-22T10:11:30.180Z,28.29
2018-07-22T10:13:58.558Z,28.29
2018-07-22T10:16:26.957Z,28.22
2018-07-22T10:18:55.349Z,28.13
2018-07-22T10:21:23.737Z,28.05
2018-07-22T10:23:52.107Z,27.99
2018-07-22T10:26:20.488Z,28.00
2018-07-22T10:28:48.887Z,27.99
2018-07-22T10:31:17.401Z,27.95
2018-07-22T10:33:45.821Z,27.89
2018-07-22T10:36:14.193Z,27.87
2018-07-22T10:38:42.594Z,27.85
2018-07-22T10:41:10.974Z,27.82
2018-07-22T10:43:39.379Z,27.82
2018-07-22T10:46:07.771Z,27.83
2018-07-22T10:48:36.174Z,27.84
2018-07-22T10:51:04.664Z,27.87
2018-07-22T10:53:33.007Z,27.90
2018-07-22T10:56:01.414Z,27.95
2018-07-22T10:58:29.813Z,28.02
2018-07-22T11:00:58.193Z,28.14
2018-07-22T11:03:26.657Z,28.24
2018-07-22T11:05:54.989Z,28.39
2018-07-22T11:08:23.395Z,28.48
2018-07-22T11:10:51.774Z,28.62
2018-07-22T11:13:20.170Z,28.67
2018-07-22T11:15:48.557Z,28.74
2018-07-22T11:18:16.977Z,28.80
2018-07-22T11:20:45.379Z,28.85
2018-07-22T11:23:13.779Z,28.89
2018-07-22T11:25:42.149Z,28.92
2018-07-22T11:28:10.537Z,28.96
2018-07-22T11:30:39.065Z,29.02
2018-07-22T11:33:07.459Z,29.16
2018-07-22T11:35:35.838Z,29.24
2018-07-22T11:38:04.222Z,29.35
2018-07-22T11:40:32.601Z,29.48
2018-07-22T11:43:01.003Z,29.61
2018-07-22T11:45:29.381Z,29.76
2018-07-22T11:47:57.798Z,29.98
2018-07-22T11:50:26.368Z,30.16
2018-07-22T11:52:54.743Z,30.25
2018-07-22T11:55:23.129Z,30.29
2018-07-22T11:57:51.532Z,30.31
2018-07-22T12:00:19.919Z,30.32
2018-07-22T12:02:48.326Z,30.37
2018-07-22T12:05:16.699Z,30.36
2018-07-22T12:07:45.262Z,30.37
2018-07-22T12:10:13.597Z,30.44
2018-07-22T12:12:41.994Z,30.50
2018-07-22T12:15:10.368Z,30.62
2018-07-22T12:17:38.825Z,30.68
2018-07-22T12:20:07.202Z,30.68
2018-07-22T12:22:35.587Z,30.68
2018-07-22T12:25:03.987Z,30.65
2018-07-22T12:27:32.371Z,30.62
2018-07-22T12:30:00.799Z,30.61
2018-07-22T12:32:29.209Z,30.59
2018-07-22T12:34:57.605Z,30.60
2018-07-22T12:37:25.995Z,30.67
2018-07-22T12:39:54.477Z,30.77
2018-07-22T12:42:22.872Z,30.75
2018-07-22T12:44:51.283Z,30.74
2018-07-22T12:47:19.669Z,30.70
2018-07-22T12:49:48.074Z,30.65
2018-07-22T12:52:16.466Z,30.58
2018-07-22T12:54:44.875Z,30.51
2018-07-22T12:57:13.259Z,30.46
2018-07-22T12:59:41.670Z,30.48
2018-07-22T13:02:10.124Z,30.51
2018-07-22T13:04:38.531Z,30.56
2018-07-22T13:07:07.187Z,30.58
2018-07-22T13:09:35.595Z,30.60
2018-07-22T13:12:03.999Z,30.62
2018-07-22T13:14:32.399Z,30.65
2018-07-22T13:17:00.791Z,30.70
2018-07-22T13:19:29.210Z,30.72
2018-07-22T13:21:57.594Z,30.75
2018-07-22T13:24:25.989Z,30.82
2018-07-22T13:26:54.357Z,30.92
2018-07-22T13:29:22.763Z,31.03
2018-07-22T13:31:51.277Z,31.11
2018-07-22T13:34:19.682Z,31.11
2018-07-22T13:36:48.054Z,31.08
2018-07-22T13:39:16.459Z,31.02
2018-07-22T13:41:44.848Z,30.97
2018-07-22T13:44:13.252Z,30.95
2018-07-22T13:46:41.627Z,31.00
2018-07-22T13:49:10.044Z,31.07
2018-07-22T13:51:38.462Z,31.14
2018-07-22T13:54:06.863Z,31.21
2018-07-22T13:56:35.250Z,31.25
2018-07-22T13:59:03.682Z,31.27
2018-07-22T14:01:32.058Z,31.21
2018-07-22T14:04:00.623Z,31.13
2018-07-22T14:06:29.016Z,31.01
2018-07-22T14:08:57.417Z,30.87
2018-07-22T14:11:25.811Z,30.72
2018-07-22T14:13:54.467Z,30.61
2018-07-22T14:16:22.845Z,30.53
2018-07-22T14:18:51.284Z,30.49
2018-07-22T14:21:19.782Z,30.47
2018-07-22T14:23:48.175Z,30.43
2018-07-22T14:26:16.569Z,30.42
2018-07-22T14:28:44.941Z,30.43
2018-07-22T14:31:13.341Z,30.42
2018-07-22T14:33:41.757Z,30.43
2018-07-22T14:36:10.193Z,30.45
2018-07-22T14:38:38.583Z,30.47
2018-07-22T14:41:07.115Z,30.45
2018-07-22T14:43:35.407Z,30.45
2018-07-22T14:46:03.831Z,30.46
2018-07-22T14:48:32.211Z,30.43
2018-07-22T14:51:00.609Z,30.41
2018-07-22T14:53:29.262Z,30.37
2018-07-22T14:55:57.684Z,30.33
2018-07-22T14:58:26.059Z,30.30
2018-07-22T15:00:54.492Z,30.29
2018-07-22T15:03:22.889Z,30.28
2018-07-22T15:05:51.306Z,30.26
2018-07-22T15:08:19.686Z,30.19
2018-07-22T15:10:48.164Z,30.14
2018-07-22T15:13:16.541Z,30.11
2018-07-22T15:15:45.562Z,30.07
2018-07-22T15:18:13.989Z,30.01
2018-07-22T15:20:42.397Z,29.94
2018-07-22T15:23:11.899Z,29.87
2018-07-22T15:25:40.319Z,29.83
2018-07-22T15:28:08.694Z,29.78
2018-07-22T15:30:37.089Z,29.71
2018-07-22T15:33:05.463Z,29.64
2018-07-22T15:35:33.871Z,29.58
2018-07-22T15:38:02.246Z,29.52
2018-07-22T15:40:30.630Z,29.47
2018-07-22T15:42:59.021Z,29.40
2018-07-22T15:45:27.418Z,29.34
2018-07-22T15:47:55.796Z,29.29
2018-07-22T15:50:24.196Z,29.24
2018-07-22T15:52:52.570Z,29.21
2018-07-22T15:55:21.174Z,29.20
2018-07-22T15:57:49.476Z,29.19
2018-07-22T16:00:17.884Z,29.18
2018-07-22T16:02:46.263Z,29.18
2018-07-22T16:05:14.663Z,29.19
2018-07-22T16:07:43.478Z,29.21
2018-07-22T16:10:11.874Z,29.24
2018-07-22T16:12:40.261Z,29.26
2018-07-22T16:15:08.685Z,29.26
2018-07-22T16:17:37.089Z,29.26
2018-07-22T16:20:05.495Z,29.29
2018-07-22T16:22:33.884Z,29.32
2018-07-22T16:25:02.306Z,29.39
2018-07-22T16:27:30.706Z,29.48
2018-07-22T16:29:59.191Z,29.58
2018-07-22T16:32:27.594Z,29.76
2018-07-22T16:34:56.006Z,29.97
2018-07-22T16:37:24.411Z,30.25
2018-07-22T16:39:52.817Z,30.55
2018-07-22T16:42:21.218Z,30.92
2018-07-22T16:44:49.627Z,31.29
2018-07-22T16:47:18.031Z,31.60
2018-07-22T16:49:46.420Z,31.81
2018-07-22T16:52:14.819Z,32.03
2018-07-22T16:54:43.193Z,32.16
2018-07-22T16:57:11.589Z,32.34
2018-07-22T16:59:39.972Z,32.42
2018-07-22T17:02:08.366Z,32.53
2018-07-22T17:04:36.775Z,32.42
2018-07-22T17:07:05.182Z,32.24
2018-07-22T17:09:33.561Z,31.94
2018-07-22T17:12:01.974Z,31.64
2018-07-22T17:14:30.358Z,31.34
2018-07-22T17:16:58.763Z,31.14
2018-07-22T17:19:27.162Z,31.07
2018-07-22T17:21:55.571Z,31.01
2018-07-22T17:24:23.966Z,30.93
2018-07-22T17:26:52.388Z,30.84
2018-07-22T17:29:20.839Z,30.75
2018-07-22T17:31:49.320Z,30.74
2018-07-22T17:34:17.711Z,30.74
2018-07-22T17:36:46.163Z,30.80
2018-07-22T17:39:14.557Z,30.87
2018-07-22T17:41:42.961Z,30.88
2018-07-22T17:44:11.338Z,30.85
2018-07-22T17:46:39.764Z,30.75
2018-07-22T17:49:08.147Z,30.61
2018-07-22T17:51:36.541Z,30.40
2018-07-22T17:54:04.937Z,30.22
2018-07-22T17:56:33.357Z,30.00
2018-07-22T17:59:01.744Z,29.76
2018-07-22T18:01:30.150Z,29.54
2018-07-22T18:03:58.526Z,29.35
2018-07-22T18:06:26.926Z,29.16
2018-07-22T18:08:55.319Z,29.04
2018-07-22T18:11:23.731Z,28.91
2018-07-22T18:13:52.119Z,28.78
2018-07-22T18:16:20.543Z,28.67
2018-07-22T18:18:48.972Z,28.54
2018-07-22T18:21:17.454Z,28.43
2018-07-22T18:23:45.841Z,28.30
2018-07-22T18:26:14.203Z,28.17
2018-07-22T18:28:42.653Z,28.03
2018-07-22T18:31:10.999Z,27.93
2018-07-22T18:33:39.411Z,27.82
2018-07-22T18:36:07.937Z,27.71
2018-07-22T18:38:36.330Z,27.61
2018-07-22T18:41:04.707Z,27.50
2018-07-22T18:43:33.115Z,27.39
2018-07-22T18:46:01.540Z,27.32
2018-07-22T18:48:30.098Z,27.23
2018-07-22T18:50:58.413Z,27.15
2018-07-22T18:53:26.775Z,27.08
2018-07-22T18:55:55.150Z,27.00
2018-07-22T18:58:23.554Z,26.93
2018-07-22T19:00:51.925Z,26.86
2018-07-22T19:03:20.407Z,26.78
2018-07-22T19:05:48.786Z,26.70
2018-07-22T19:08:17.174Z,26.65
2018-07-22T19:10:45.547Z,26.57
2018-07-22T19:13:14.071Z,26.50
2018-07-22T19:15:42.389Z,26.40
2018-07-22T19:18:10.817Z,26.36
2018-07-22T19:20:39.199Z,26.26
2018-07-22T19:23:07.631Z,26.18
2018-07-22T19:25:36.017Z,26.10
2018-07-22T19:28:04.415Z,26.02
2018-07-22T19:30:32.833Z,25.96
2018-07-22T19:33:01.229Z,25.89
2018-07-22T19:35:29.684Z,25.82
2018-07-22T19:37:58.123Z,25.76
2018-07-22T19:40:26.573Z,25.72
2018-07-22T19:42:54.984Z,25.64
2018-07-22T19:45:23.366Z,25.57
2018-07-22T19:47:51.830Z,25.51
2018-07-22T19:50:20.214Z,25.44
2018-07-22T19:52:48.609Z,25.36
2018-07-22T19:55:16.983Z,25.29
2018-07-22T19:57:45.402Z,25.21
2018-07-22T20:00:14.078Z,25.11
2018-07-22T20:02:42.788Z,24.99
2018-07-22T20:05:11.162Z,24.90
2018-07-22T20:07:39.645Z,24.83
2018-07-22T20:10:08.038Z,24.76
2018-07-22T20:12:36.479Z,24.68
2018-07-22T20:15:05.212Z,24.61
2018-07-22T20:17:33.675Z,24.51
2018-07-22T20:20:02.066Z,24.44
2018-07-22T20:22:30.454Z,24.36
2018-07-22T20:24:58.849Z,24.29
2018-07-22T20:27:27.230Z,24.25
2018-07-22T20:29:55.638Z,24.18
2018-07-22T20:32:24.019Z,24.10
2018-07-22T20:34:52.412Z,24.02
2018-07-22T20:37:20.791Z,23.96
2018-07-22T20:39:49.190Z,23.91
2018-07-22T20:42:17.578Z,23.85
2018-07-22T20:44:45.977Z,23.81
2018-07-22T20:47:14.425Z,23.79
2018-07-22T20:49:42.770Z,23.76
2018-07-22T20:52:11.148Z,23.73
2018-07-22T20:54:39.544Z,23.68
2018-07-22T20:57:07.940Z,23.63
2018-07-22T20:59:36.346Z,23.58
2018-07-22T21:02:04.754Z,23.52
2018-07-22T21:04:33.278Z,23.48
2018-07-22T21:07:01.655Z,23.44
2018-07-22T21:09:30.061Z,23.42
2018-07-22T21:13:07.966Z,23.39
2018-07-22T21:15:36.559Z,23.34
2018-07-22T21:18:04.975Z,23.29
2018-07-22T21:20:33.386Z,23.28
2018-07-22T21:23:01.758Z,23.24
2018-07-22T21:25:30.153Z,23.21
2018-07-22T21:27:58.534Z,23.18
2018-07-22T21:30:26.948Z,23.14
2018-07-22T21:32:55.321Z,23.09
2018-07-22T21:35:23.730Z,23.04
2018-07-22T21:37:52.114Z,22.99
2018-07-22T21:40:20.575Z,22.96
2018-07-22T21:42:48.932Z,22.92
2018-07-22T21:45:17.321Z,22.88
2018-07-22T21:47:45.720Z,22.83
2018-07-22T21:50:14.117Z,22.78
2018-07-22T21:52:42.602Z,22.76
2018-07-22T21:55:11.027Z,22.72
2018-07-22T21:57:39.410Z,22.69
2018-07-22T22:00:22.506Z,22.65
2018-07-22T22:02:50.928Z,22.61
2018-07-22T22:05:19.334Z,22.58
2018-07-22T22:07:47.715Z,22.56
2018-07-22T22:10:16.118Z,22.54
2018-07-22T22:12:44.499Z,22.51
2018-07-22T22:15:26.302Z,22.49
2018-07-22T22:17:56.091Z,22.47
2018-07-22T22:20:24.495Z,22.42
2018-07-22T22:22:52.873Z,22.39
2018-07-22T22:25:21.288Z,22.36
2018-07-22T22:27:49.670Z,22.31
2018-07-22T22:30:18.619Z,22.26
2018-07-22T22:32:47.490Z,22.23
2018-07-22T22:35:15.890Z,22.17
2018-07-22T22:37:44.861Z,22.14
2018-07-22T22:40:14.192Z,22.11
2018-07-22T22:42:43.882Z,22.08
2018-07-22T22:45:12.478Z,22.05
2018-07-22T22:47:40.862Z,21.99
2018-07-22T22:50:09.292Z,21.95
2018-07-22T22:52:37.906Z,21.91
2018-07-22T22:55:06.410Z,21.87
2018-07-22T22:57:34.823Z,21.83
2018-07-22T23:00:03.251Z,21.80
2018-07-22T23:02:35.289Z,21.75
2018-07-22T23:05:04.440Z,21.71
2018-07-22T23:07:32.865Z,21.68
2018-07-22T23:10:01.603Z,21.64
2018-07-22T23:12:29.998Z,21.58
2018-07-22T23:14:58.418Z,21.57
2018-07-22T23:17:26.834Z,21.53
2018-07-22T23:19:55.283Z,21.48
2018-07-22T23:22:25.469Z,21.41
2018-07-22T23:24:53.861Z,21.34
2018-07-22T23:27:22.236Z,21.31
2018-07-22T23:29:50.709Z,21.26
2018-07-22T23:32:19.081Z,21.22
2018-07-22T23:34:47.483Z,21.18
2018-07-22T23:37:15.862Z,21.14
2018-07-22T23:39:44.233Z,21.12
2018-07-22T23:42:12.663Z,21.11
2018-07-22T23:44:41.034Z,21.09
2018-07-22T23:47:09.435Z,21.06
2018-07-22T23:49:37.814Z,21.03
2018-07-22T23:52:06.219Z,21.00
2018-07-22T23:54:34.598Z,20.98
2018-07-22T23:57:02.997Z,20.96
2018-07-22T23:59:31.374Z,20.92
